createdAt,value
2019-01-08T00:00:25.202Z,56.73
2019-01-08T00:02:53.954Z,54.83
2019-01-08T00:05:22.416Z,38.95
2019-01-08T00:07:50.920Z,47.07
2019-01-08T00:10:19.445Z,49.25
2019-01-08T00:12:48.231Z,48.37
2019-01-08T00:15:16.741Z,58.80
2019-01-08T00:17:45.257Z,58.67
2019-01-08T00:23:45.578Z,50.90
2019-01-08T00:26:14.065Z,55.17
2019-01-08T00:28:43.374Z,44.33
2019-01-08T00:31:11.433Z,62.65
2019-01-08T00:33:40.120Z,40.10
2019-01-08T00:36:09.113Z,43.20
2019-01-08T00:38:37.629Z,66.23
2019-01-08T00:41:06.146Z,53.90
2019-01-08T00:43:34.772Z,46.73
2019-01-08T00:46:03.329Z,59.77
2019-01-08T00:48:31.909Z,61.43
2019-01-08T00:51:00.406Z,50.97
2019-01-08T00:53:29.053Z,56.60
2019-01-08T00:55:57.513Z,57.93
2019-01-08T00:58:26.010Z,56.80
2019-01-08T01:00:54.856Z,54.13
2019-01-08T01:03:23.341Z,69.90
2019-01-08T01:05:51.885Z,63.57
2019-01-08T01:08:20.361Z,55.47
2019-01-08T01:10:48.836Z,59.57
2019-01-08T01:13:17.788Z,66.30
2019-01-08T01:15:46.293Z,46.90
2019-01-08T01:18:14.877Z,67.95
2019-01-08T01:20:43.517Z,61.73
2019-01-08T01:23:12.033Z,66.03
2019-01-08T01:25:40.540Z,51.90
2019-01-08T01:28:09.053Z,56.67
2019-01-08T01:30:37.628Z,62.97
2019-01-08T01:35:49.137Z,61.50
2019-01-08T01:38:17.630Z,57.88
2019-01-08T01:40:46.325Z,55.90
2019-01-08T01:43:15.112Z,60.60
2019-01-08T01:45:43.708Z,53.10
2019-01-08T01:48:12.188Z,51.53
2019-01-08T01:50:41.317Z,59.87
2019-01-08T01:53:09.872Z,56.17
2019-01-08T01:55:38.340Z,61.13
2019-01-08T01:58:06.912Z,45.93
2019-01-08T02:00:35.440Z,55.13
2019-01-08T02:03:05.018Z,51.67
2019-01-08T02:05:34.120Z,51.53
2019-01-08T02:08:02.652Z,58.50
2019-01-08T02:10:31.148Z,63.17
2019-01-08T02:12:59.651Z,52.03
2019-01-08T02:15:28.164Z,57.97
2019-01-08T02:17:57.368Z,53.97
2019-01-08T02:20:25.820Z,50.43
2019-01-08T02:22:54.407Z,57.80
2019-01-08T02:25:23.133Z,49.90
2019-01-08T02:27:51.740Z,55.50
2019-01-08T02:30:20.725Z,56.33
2019-01-08T02:32:49.520Z,46.43
2019-01-08T02:35:18.000Z,52.13
2019-01-08T02:37:46.864Z,53.07
2019-01-08T02:40:15.697Z,55.70
2019-01-08T02:42:44.253Z,56.90
2019-01-08T02:45:13.112Z,54.33
2019-01-08T02:47:41.704Z,51.57
2019-01-08T02:50:10.493Z,50.53
2019-01-08T02:52:38.944Z,44.83
2019-01-08T02:55:07.436Z,47.83
2019-01-08T02:57:35.920Z,54.63
2019-01-08T03:00:04.960Z,53.93
2019-01-08T03:02:33.452Z,49.17
2019-01-08T03:05:01.970Z,57.73
2019-01-08T03:07:30.784Z,51.67
2019-01-08T03:09:59.388Z,52.30
2019-01-08T03:12:28.037Z,40.27
2019-01-08T03:14:56.620Z,61.07
2019-01-08T03:17:25.116Z,52.53
2019-01-08T03:19:54.120Z,60.80
2019-01-08T03:22:23.139Z,56.33
2019-01-08T03:24:52.020Z,68.07
2019-01-08T03:27:20.463Z,59.38
2019-01-08T03:30:06.643Z,52.73
2019-01-08T03:32:35.220Z,64.17
2019-01-08T03:35:04.299Z,60.33
2019-01-08T03:37:33.103Z,62.50
2019-01-08T03:40:01.773Z,49.07
2019-01-08T03:42:30.624Z,61.23
2019-01-08T03:44:59.148Z,65.63
2019-01-08T03:47:27.919Z,63.87
2019-01-08T03:49:56.584Z,64.57
2019-01-08T03:52:25.379Z,63.63
2019-01-08T03:54:53.967Z,58.60
2019-01-08T03:57:22.443Z,65.30
2019-01-08T03:59:51.310Z,58.77
2019-01-08T04:02:20.261Z,53.97
2019-01-08T04:04:48.827Z,62.67
2019-01-08T04:07:17.340Z,50.38
2019-01-08T04:09:46.221Z,55.10
2019-01-08T04:12:15.387Z,60.80
2019-01-08T04:14:44.119Z,48.30
2019-01-08T04:17:13.032Z,42.03
2019-01-08T04:19:41.491Z,53.00
2019-01-08T04:22:10.083Z,60.67
2019-01-08T04:24:38.567Z,49.53
2019-01-08T04:27:07.049Z,47.73
2019-01-08T04:29:35.655Z,61.00
2019-01-08T04:32:04.564Z,58.97
2019-01-08T04:34:32.990Z,61.80
2019-01-08T04:37:01.811Z,47.80
2019-01-08T04:39:30.294Z,70.13
2019-01-08T04:41:58.758Z,52.57
2019-01-08T04:44:27.223Z,65.83
2019-01-08T04:46:55.763Z,63.53
2019-01-08T04:49:24.280Z,67.50
2019-01-08T04:51:54.067Z,66.90
2019-01-08T04:54:22.627Z,64.80
2019-01-08T04:56:51.087Z,56.90
2019-01-08T04:59:19.555Z,65.50
2019-01-08T05:01:48.735Z,57.97
2019-01-08T05:04:17.299Z,44.47
2019-01-08T05:06:46.458Z,56.10
2019-01-08T05:09:15.242Z,45.73
2019-01-08T05:11:44.279Z,56.07
2019-01-08T05:14:12.739Z,56.63
2019-01-08T05:16:41.205Z,52.33
2019-01-08T05:19:10.046Z,75.27
2019-01-08T05:21:38.858Z,66.73
2019-01-08T05:24:07.323Z,64.87
2019-01-08T05:26:35.811Z,55.83
2019-01-08T05:29:04.667Z,71.87
2019-01-08T05:31:33.142Z,66.07
2019-01-08T05:34:01.593Z,65.33
2019-01-08T05:36:30.250Z,63.03
2019-01-08T05:38:58.867Z,54.50
2019-01-08T05:41:27.322Z,64.17
2019-01-08T05:43:56.503Z,70.07
2019-01-08T05:46:25.682Z,61.53
2019-01-08T05:48:54.245Z,78.33
2019-01-08T05:51:23.146Z,89.28
2019-01-08T05:53:51.587Z,78.80
2019-01-08T05:56:20.350Z,77.30
2019-01-08T05:58:48.834Z,57.13
2019-01-08T06:01:18.038Z,76.67
2019-01-08T06:03:46.746Z,67.50
2019-01-08T06:06:15.222Z,67.13
2019-01-08T06:08:44.105Z,73.60
2019-01-08T06:11:12.814Z,74.70
2019-01-08T06:13:41.273Z,74.53
2019-01-08T06:16:10.298Z,77.80
2019-01-08T06:18:38.846Z,62.07
2019-01-08T06:21:07.307Z,67.93
2019-01-08T06:23:35.768Z,70.47
2019-01-08T06:26:04.738Z,69.73
2019-01-08T06:28:33.401Z,79.03
2019-01-08T06:31:01.922Z,65.27
2019-01-08T06:33:30.458Z,67.23
2019-01-08T06:35:59.002Z,71.63
2019-01-08T06:38:27.642Z,75.90
2019-01-08T06:40:57.667Z,71.20
2019-01-08T06:43:25.110Z,76.23
2019-01-08T06:45:53.570Z,81.37
2019-01-08T06:48:22.183Z,60.65
2019-01-08T06:50:56.065Z,75.10
2019-01-08T06:53:19.950Z,70.33
2019-01-08T06:55:48.446Z,63.70
2019-01-08T06:58:17.506Z,63.37
2019-01-08T07:00:46.115Z,73.07
2019-01-08T07:03:15.066Z,73.73
2019-01-08T07:05:43.873Z,72.83
2019-01-08T07:08:12.583Z,84.97
2019-01-08T07:10:41.122Z,76.37
2019-01-08T07:13:10.322Z,76.93
2019-01-08T07:15:38.964Z,76.50
2019-01-08T07:18:07.857Z,75.67
2019-01-08T07:20:36.489Z,77.90
2019-01-08T07:23:05.197Z,66.30
2019-01-08T07:25:41.923Z,68.03
2019-01-08T07:28:02.658Z,73.53
2019-01-08T07:30:31.310Z,70.80
2019-01-08T07:33:00.017Z,67.50
2019-01-08T07:35:28.485Z,70.37
2019-01-08T07:37:56.962Z,68.83
2019-01-08T07:40:25.453Z,69.33
2019-01-08T07:42:54.013Z,67.93
2019-01-08T07:45:22.749Z,70.63
2019-01-08T07:47:51.737Z,78.67
2019-01-08T07:50:20.769Z,74.07
2019-01-08T07:52:49.246Z,62.60
2019-01-08T07:55:17.761Z,76.50
2019-01-08T07:57:46.209Z,81.47
2019-01-08T08:00:14.702Z,68.63
2019-01-08T08:02:44.333Z,75.10
2019-01-08T08:05:13.018Z,81.87
2019-01-08T08:07:41.501Z,75.00
2019-01-08T08:10:09.989Z,76.00
2019-01-08T08:12:38.459Z,69.10
2019-01-08T08:15:07.554Z,74.00
2019-01-08T08:17:36.181Z,68.93
2019-01-08T08:20:06.437Z,74.70
2019-01-08T08:22:34.995Z,75.23
2019-01-08T08:25:03.593Z,72.37
2019-01-08T08:27:33.376Z,62.10
2019-01-08T08:30:01.899Z,69.40
2019-01-08T08:32:30.729Z,68.97
2019-01-08T08:35:07.903Z,60.37
2019-01-08T08:37:28.313Z,68.70
2019-01-08T08:39:56.877Z,65.30
2019-01-08T08:42:25.361Z,59.90
2019-01-08T08:44:54.218Z,65.27
2019-01-08T08:47:22.853Z,58.83
2019-01-08T08:49:51.357Z,53.90
2019-01-08T08:52:24.489Z,57.00
2019-01-08T08:54:56.389Z,58.77
2019-01-08T08:57:25.506Z,55.33
2019-01-08T08:59:54.153Z,51.13
2019-01-08T09:02:22.668Z,45.17
2019-01-08T09:04:51.166Z,55.93
2019-01-08T09:07:20.231Z,49.73
2019-01-08T09:09:48.177Z,52.13
2019-01-08T09:12:20.797Z,59.60
2019-01-08T09:14:49.349Z,58.70
2019-01-08T09:17:17.906Z,59.57
2019-01-08T09:19:46.561Z,60.17
2019-01-08T09:22:15.509Z,61.27
2019-01-08T09:24:44.161Z,57.10
2019-01-08T09:27:12.677Z,56.73
2019-01-08T09:29:41.617Z,55.23
2019-01-08T09:32:10.249Z,53.50
2019-01-08T09:34:38.999Z,50.10
2019-01-08T09:37:07.593Z,55.83
2019-01-08T09:39:36.108Z,57.83
2019-01-08T09:42:05.121Z,55.03
2019-01-08T09:44:34.189Z,54.20
2019-01-08T09:47:02.713Z,56.00
2019-01-08T09:49:31.181Z,53.47
2019-01-08T09:51:59.965Z,51.07
2019-01-08T09:54:28.441Z,48.17
2019-01-08T09:56:57.296Z,56.93
2019-01-08T09:59:27.073Z,57.47
2019-01-08T10:01:55.618Z,53.77
2019-01-08T10:04:24.129Z,53.60
2019-01-08T10:06:52.587Z,54.00
2019-01-08T10:09:21.116Z,55.27
2019-01-08T10:11:49.612Z,66.10
2019-01-08T10:14:18.912Z,68.23
2019-01-08T10:16:47.656Z,59.60
2019-01-08T10:19:17.684Z,64.43
2019-01-08T10:21:46.796Z,71.93
2019-01-08T10:24:15.423Z,76.37
2019-01-08T10:26:44.286Z,64.93
2019-01-08T10:29:13.004Z,70.83
2019-01-08T10:31:41.558Z,73.60
2019-01-08T10:34:10.384Z,71.70
2019-01-08T10:36:41.468Z,81.73
2019-01-08T10:39:10.080Z,69.10
2019-01-08T10:41:38.652Z,81.83
2019-01-08T10:44:07.220Z,64.20
2019-01-08T10:49:35.517Z,78.20
2019-01-08T10:52:04.789Z,78.20
2019-01-08T10:54:33.646Z,73.50
2019-01-08T10:57:02.752Z,68.27
2019-01-08T10:59:31.736Z,65.90
2019-01-08T11:02:00.304Z,71.17
2019-01-08T11:04:29.111Z,64.93
2019-01-08T11:06:57.737Z,66.20
2019-01-08T11:09:26.844Z,69.20
2019-01-08T11:11:55.728Z,60.40
2019-01-08T11:14:24.600Z,74.33
2019-01-08T11:16:53.484Z,61.63
2019-01-08T11:19:22.350Z,75.70
2019-01-08T11:21:51.224Z,69.40
2019-01-08T11:24:20.344Z,71.80
2019-01-08T11:26:49.116Z,66.77
2019-01-08T11:29:17.864Z,65.42
2019-01-08T11:31:48.927Z,68.83
2019-01-08T11:34:15.636Z,66.97
2019-01-08T11:36:44.293Z,60.53
2019-01-08T11:39:12.892Z,62.90
2019-01-08T11:41:41.564Z,60.97
2019-01-08T11:44:10.573Z,60.98
2019-01-08T11:46:40.104Z,63.07
2019-01-08T11:49:08.664Z,63.70
2019-01-08T11:51:37.500Z,64.27
2019-01-08T11:54:06.320Z,58.67
2019-01-08T11:56:35.116Z,67.53
2019-01-08T11:59:03.772Z,65.77
2019-01-08T12:01:33.276Z,59.40
2019-01-08T12:04:01.876Z,61.17
2019-01-08T12:06:30.847Z,48.20
2019-01-08T12:08:59.488Z,67.50
2019-01-08T12:11:28.090Z,55.70
2019-01-08T12:13:56.668Z,55.43
2019-01-08T12:16:25.251Z,55.73
2019-01-08T12:18:54.100Z,54.93
2019-01-08T12:21:22.756Z,55.93
2019-01-08T12:23:51.244Z,52.83
2019-01-08T12:26:19.764Z,59.03
2019-01-08T12:28:48.263Z,55.00
2019-01-08T12:31:16.759Z,54.03
2019-01-08T12:33:45.567Z,52.47
2019-01-08T12:36:14.470Z,66.47
2019-01-08T12:38:42.947Z,59.67
2019-01-08T12:41:11.567Z,62.67
2019-01-08T12:43:40.159Z,62.73
2019-01-08T12:46:08.792Z,61.50
2019-01-08T12:48:37.355Z,50.57
2019-01-08T12:51:06.115Z,50.80
2019-01-08T12:53:34.612Z,52.17
2019-01-08T12:56:03.076Z,59.43
2019-01-08T12:58:31.591Z,50.33
2019-01-08T13:01:00.263Z,55.47
2019-01-08T13:03:28.717Z,54.70
2019-01-08T13:05:57.195Z,61.90
2019-01-08T13:08:25.963Z,50.87
2019-01-08T13:10:54.901Z,54.33
2019-01-08T13:13:23.385Z,54.00
2019-01-08T13:15:51.834Z,49.90
2019-01-08T13:18:20.591Z,63.27
2019-01-08T13:20:49.067Z,58.97
2019-01-08T13:23:17.915Z,61.83
2019-01-08T13:25:46.598Z,55.13
2019-01-08T13:28:15.342Z,56.37
2019-01-08T13:30:44.783Z,60.03
2019-01-08T13:33:13.654Z,57.47
2019-01-08T13:36:12.975Z,58.77
2019-01-08T13:38:41.888Z,60.40
2019-01-08T13:41:10.439Z,54.70
2019-01-08T13:43:39.255Z,67.57
2019-01-08T13:46:08.082Z,61.83
2019-01-08T13:48:37.039Z,61.63
2019-01-08T13:51:05.772Z,61.17
2019-01-08T13:53:34.698Z,67.20
2019-01-08T13:56:03.642Z,63.30
2019-01-08T13:58:32.800Z,60.33
2019-01-08T14:01:01.610Z,67.17
2019-01-08T14:03:30.474Z,67.57
2019-01-08T14:05:59.398Z,73.93
2019-01-08T14:08:28.670Z,59.27
2019-01-08T14:10:57.662Z,70.90
2019-01-08T14:13:26.790Z,67.23
2019-01-08T14:15:55.500Z,56.03
2019-01-08T14:18:24.178Z,65.70
2019-01-08T14:20:53.350Z,61.47
2019-01-08T14:23:22.150Z,62.73
2019-01-08T14:25:51.182Z,63.73
2019-01-08T14:28:19.999Z,61.50
2019-01-08T14:30:48.870Z,60.53
2019-01-08T14:36:02.774Z,56.03
2019-01-08T14:38:31.992Z,60.60
2019-01-08T14:41:01.242Z,63.60
2019-01-08T14:43:31.058Z,55.33
2019-01-08T14:46:00.754Z,54.17
2019-01-08T14:48:29.727Z,58.27
2019-01-08T14:50:58.709Z,54.83
2019-01-08T14:53:28.194Z,66.33
2019-01-08T14:55:57.526Z,58.77
2019-01-08T14:58:28.442Z,64.27
2019-01-08T15:00:57.650Z,61.30
2019-01-08T15:03:26.951Z,57.20
2019-01-08T15:05:55.966Z,54.67
2019-01-08T15:08:24.785Z,66.13
2019-01-08T15:10:53.663Z,53.97
2019-01-08T15:13:22.306Z,57.78
2019-01-08T15:15:52.718Z,61.80
2019-01-08T15:18:21.562Z,57.23
2019-01-08T15:20:50.479Z,62.27
2019-01-08T15:23:19.510Z,58.00
2019-01-08T15:25:48.739Z,60.93
2019-01-08T15:28:17.938Z,56.77
2019-01-08T15:30:46.911Z,58.20
2019-01-08T15:33:16.252Z,64.47
2019-01-08T15:35:45.228Z,64.37
2019-01-08T15:38:13.942Z,64.83
2019-01-08T15:40:43.502Z,66.77
2019-01-08T15:43:12.247Z,64.63
2019-01-08T15:45:41.458Z,64.27
2019-01-08T15:48:10.356Z,71.67
2019-01-08T15:50:38.994Z,69.27
2019-01-08T15:53:07.631Z,63.23
2019-01-08T15:55:36.351Z,62.93
2019-01-08T15:58:04.959Z,71.37
2019-01-08T16:00:33.635Z,63.73
2019-01-08T16:03:07.219Z,70.80
2019-01-08T16:05:31.244Z,69.07
2019-01-08T16:08:00.595Z,71.30
2019-01-08T16:10:30.283Z,66.80
2019-01-08T16:12:59.075Z,70.03
2019-01-08T16:15:27.971Z,67.53
2019-01-08T16:17:56.862Z,72.57
2019-01-08T16:20:27.599Z,68.63
2019-01-08T16:22:56.485Z,71.60
2019-01-08T16:25:25.276Z,73.00
2019-01-08T16:27:54.099Z,65.33
2019-01-08T16:30:23.255Z,62.15
2019-01-08T16:32:52.330Z,69.00
2019-01-08T16:35:21.283Z,69.83
2019-01-08T16:37:50.206Z,60.93
2019-01-08T16:40:19.279Z,65.63
2019-01-08T16:42:48.115Z,68.67
2019-01-08T16:45:17.102Z,58.43
2019-01-08T16:47:45.948Z,71.10
2019-01-08T16:50:15.230Z,55.20
2019-01-08T16:52:44.199Z,73.23
2019-01-08T16:55:13.174Z,65.60
2019-01-08T16:57:41.863Z,68.17
2019-01-08T17:00:11.635Z,72.23
2019-01-08T17:02:40.498Z,74.37
2019-01-08T17:05:09.658Z,67.93
2019-01-08T17:07:38.251Z,62.63
2019-01-08T17:10:07.526Z,68.80
2019-01-08T17:12:36.558Z,67.97
2019-01-08T17:15:06.275Z,71.47
2019-01-08T17:17:35.782Z,73.77
2019-01-08T17:20:05.046Z,71.77
2019-01-08T17:22:34.010Z,69.23
2019-01-08T17:25:02.870Z,77.40
2019-01-08T17:27:31.678Z,71.90
2019-01-08T17:30:00.666Z,71.10
2019-01-08T17:32:29.814Z,75.00
2019-01-08T17:34:58.518Z,68.20
2019-01-08T17:37:36.389Z,69.07
2019-01-08T17:40:05.943Z,75.00
2019-01-08T17:42:34.744Z,75.93
2019-01-08T17:45:03.914Z,72.73
2019-01-08T17:47:32.568Z,84.50
2019-01-08T17:50:01.331Z,64.73
2019-01-08T17:52:30.240Z,68.43
2019-01-08T17:54:58.954Z,67.23
2019-01-08T17:57:27.964Z,68.60
2019-01-08T17:59:57.520Z,70.23
2019-01-08T18:02:26.822Z,66.10
2019-01-08T18:04:56.972Z,62.97
2019-01-08T18:07:26.463Z,62.63
2019-01-08T18:09:55.321Z,58.40
2019-01-08T18:12:24.012Z,62.03
2019-01-08T18:14:53.381Z,69.37
2019-01-08T18:17:22.510Z,65.90
2019-01-08T18:19:51.293Z,57.80
2019-01-08T18:22:19.894Z,60.03
2019-01-08T18:24:48.524Z,58.63
2019-01-08T18:27:17.387Z,55.77
2019-01-08T18:29:46.266Z,58.80
2019-01-08T18:32:14.864Z,58.03
2019-01-08T18:34:43.415Z,56.40
2019-01-08T18:37:12.135Z,55.20
2019-01-08T18:39:40.708Z,50.52
2019-01-08T18:42:09.244Z,48.95
2019-01-08T18:44:38.805Z,53.47
2019-01-08T18:47:07.620Z,53.48
2019-01-08T18:49:36.296Z,52.03
2019-01-08T18:52:05.107Z,51.70
2019-01-08T18:54:34.182Z,46.37
2019-01-08T18:57:02.663Z,56.47
2019-01-08T18:59:31.387Z,58.60
2019-01-08T19:02:00.523Z,51.67
2019-01-08T19:04:29.396Z,55.00
2019-01-08T19:06:58.183Z,59.67
2019-01-08T19:09:29.843Z,58.93
2019-01-08T19:11:58.705Z,53.23
2019-01-08T19:14:30.552Z,57.97
2019-01-08T19:16:59.495Z,54.90
2019-01-08T19:19:28.624Z,57.13
2019-01-08T19:21:57.324Z,52.83
2019-01-08T19:24:26.028Z,52.53
2019-01-08T19:26:54.683Z,48.53
2019-01-08T19:29:23.485Z,52.27
2019-01-08T19:31:52.293Z,50.50
2019-01-08T19:34:21.304Z,54.87
2019-01-08T19:36:50.285Z,53.78
2019-01-08T19:39:19.070Z,53.43
2019-01-08T19:41:47.836Z,52.05
2019-01-08T19:44:16.535Z,53.07
2019-01-08T19:46:45.171Z,52.40
2019-01-08T19:49:13.902Z,55.10
2019-01-08T19:51:42.639Z,58.00
2019-01-08T19:54:11.315Z,61.65
2019-01-08T19:56:40.127Z,66.03
2019-01-08T19:59:08.799Z,54.70
2019-01-08T20:01:37.687Z,66.37
2019-01-08T20:04:06.479Z,63.03
2019-01-08T20:06:35.138Z,57.37
2019-01-08T20:09:03.864Z,53.27
2019-01-08T20:11:32.423Z,54.10
2019-01-08T20:14:01.098Z,61.23
2019-01-08T20:16:29.778Z,58.97
2019-01-08T20:18:58.338Z,63.97
2019-01-08T20:21:26.859Z,55.77
2019-01-08T20:23:55.426Z,65.77
2019-01-08T20:26:23.947Z,63.00
2019-01-08T20:28:52.461Z,61.83
2019-01-08T20:31:21.267Z,62.90
2019-01-08T20:33:50.150Z,64.70
2019-01-08T20:36:18.928Z,67.12
2019-01-08T20:38:47.602Z,61.10
2019-01-08T20:43:59.223Z,59.03
2019-01-08T20:46:28.244Z,59.37
2019-01-08T20:48:56.955Z,60.40
2019-01-08T20:51:25.695Z,58.87
2019-01-08T20:53:54.638Z,53.67
2019-01-08T20:56:23.338Z,53.40
2019-01-08T20:58:52.242Z,58.50
2019-01-08T21:01:20.910Z,54.20
2019-01-08T21:03:49.607Z,55.60
2019-01-08T21:06:18.927Z,55.40
2019-01-08T21:08:48.019Z,56.90
2019-01-08T21:11:16.670Z,54.53
2019-01-08T21:13:45.350Z,60.67
2019-01-08T21:16:14.071Z,54.13
2019-01-08T21:18:42.779Z,50.80
2019-01-08T21:21:11.399Z,55.63
2019-01-08T21:23:40.043Z,49.40
2019-01-08T21:26:08.754Z,50.83
2019-01-08T21:28:38.198Z,49.40
2019-01-08T21:31:07.158Z,54.80
2019-01-08T21:33:36.135Z,47.70
2019-01-08T21:36:05.578Z,48.50
2019-01-08T21:38:34.310Z,55.47
2019-01-08T21:41:03.012Z,48.63
2019-01-08T21:43:31.690Z,49.27
2019-01-08T21:46:00.470Z,51.33
2019-01-08T21:48:29.186Z,48.27
2019-01-08T21:50:57.922Z,51.90
2019-01-08T21:53:27.174Z,45.40
2019-01-08T21:55:55.959Z,46.10
2019-01-08T21:58:24.758Z,48.83
2019-01-08T22:00:53.650Z,47.47
2019-01-08T22:03:22.582Z,45.77
2019-01-08T22:05:51.730Z,49.43
2019-01-08T22:08:20.638Z,49.50
2019-01-08T22:10:50.843Z,50.23
2019-01-08T22:13:19.766Z,48.47
2019-01-08T22:15:48.499Z,50.13
2019-01-08T22:18:17.211Z,44.77
2019-01-08T22:20:45.874Z,53.37
2019-01-08T22:23:14.850Z,49.48
2019-01-08T22:25:43.818Z,50.00
2019-01-08T22:28:12.594Z,49.70
2019-01-08T22:30:46.962Z,50.67
2019-01-08T22:33:16.771Z,52.40
2019-01-08T22:35:44.803Z,51.27
2019-01-08T22:38:13.888Z,49.87
2019-01-08T22:40:44.363Z,50.60
2019-01-08T22:43:15.273Z,56.23
2019-01-08T22:45:45.429Z,54.83
2019-01-08T22:48:14.387Z,56.40
2019-01-08T22:50:43.334Z,61.67
2019-01-08T22:53:12.402Z,55.07
2019-01-08T22:55:42.662Z,51.70
2019-01-08T22:58:11.874Z,52.40
2019-01-08T23:00:51.782Z,52.97
2019-01-08T23:03:20.742Z,53.37
2019-01-08T23:05:51.601Z,54.63
2019-01-08T23:08:19.766Z,52.03
2019-01-08T23:10:48.694Z,55.13
2019-01-08T23:13:17.794Z,55.73
2019-01-08T23:15:46.807Z,55.40
2019-01-08T23:18:15.570Z,49.37
2019-01-08T23:20:45.422Z,51.47
2019-01-08T23:23:14.091Z,53.98
2019-01-08T23:25:43.351Z,52.63
2019-01-08T23:28:12.812Z,52.83
2019-01-08T23:30:42.926Z,52.60
2019-01-08T23:34:14.398Z,48.13
2019-01-08T23:36:43.190Z,51.37
2019-01-08T23:39:12.870Z,50.33
2019-01-08T23:41:41.615Z,45.53
2019-01-08T23:44:11.014Z,49.42
2019-01-08T23:46:48.270Z,46.50
2019-01-08T23:49:23.562Z,48.13
2019-01-08T23:51:59.022Z,45.57
2019-01-08T23:54:27.815Z,46.73
2019-01-08T23:56:57.110Z,47.73
2019-01-08T23:59:27.298Z,47.33
